Trevelin, Argentina
Current Conditions -  °F | °C
As of 9:00 AM on Saturday 20 Dec 2014 (Local Time) from SCAP Reporting Station
Overcast Overcast  
Wind Chill: 37°   Ceiling: 1100
Heat Index: 41°   Visibility: NA
Dew Point: 37°   Wind: 6mph
Humidity: 87%   Direction: 270°W
Pressure: 30.03"   Gusts: NA
Location:  43.07°S, 71.47°W
Report Text: SCAP 201200Z AUTO 27005KT 230V320 //// // OVC011 05/03 Q1017
Loading
Personal Weather Stations






























Interactive Weather Map New forecast layout! Learn more

10-Day Weather Forecast

Advertisements
Track Severe Weather on mobile